Time;durP1;ratioP1;P1;durP2;ratioP2;P2;SDS_P1;SDS_P2;PMS_P1;PMS_P2;Temp;Humidity;BMP_temperature;BMP_pressure;BME280_temperature;BME280_humidity;BME280_pressure;Samples;Min_cycle;Max_cycle;Signal;HPM_P1;HPM_P2
2023/12/12 00:01:26;;;;;;;11.83;5.30;;;;;;;;;;774216;180;876047;-69
2023/12/12 00:03:52;;;;;;;9.10;5.80;;;;;;;;;;771413;178;915481;-70
2023/12/12 00:06:18;;;;;;;10.23;4.53;;;;;;;;;;772231;179;924605;-63
2023/12/12 00:08:44;;;;;;;10.80;5.13;;;;;;;;;;772988;180;919662;-63
2023/12/12 00:11:10;;;;;;;8.50;5.00;;;;;;;;;;777010;180;922700;-70
2023/12/12 00:13:36;;;;;;;9.00;5.27;;;;;;;;;;773509;179;820247;-63
2023/12/12 00:16:01;;;;;;;14.10;5.15;;;;;;;;;;770845;180;918736;-63
2023/12/12 00:18:27;;;;;;;8.97;4.70;;;;;;;;;;777558;180;916318;-63
2023/12/12 00:20:53;;;;;;;6.17;4.37;;;;;;;;;;774305;180;816123;-70
2023/12/12 00:23:19;;;;;;;12.00;4.90;;;;;;;;;;771064;180;918445;-63
2023/12/12 00:25:45;;;;;;;13.70;4.80;;;;;;;;;;775984;180;918071;-70
2023/12/12 00:28:11;;;;;;;9.97;4.43;;;;;;;;;;771985;180;920547;-70
2023/12/12 00:30:36;;;;;;;8.80;3.50;;;;;;;;;;773960;180;816786;-69
2023/12/12 00:33:02;;;;;;;11.30;4.18;;;;;;;;;;772500;180;814865;-63
2023/12/12 00:35:28;;;;;;;9.00;5.30;;;;;;;;;;776479;180;892878;-64
2023/12/12 00:37:54;;;;;;;7.68;4.70;;;;;;;;;;770595;179;919308;-69
2023/12/12 00:40:20;;;;;;;7.73;4.17;;;;;;;;;;771696;180;908909;-63
2023/12/12 00:42:46;;;;;;;7.60;4.17;;;;;;;;;;777065;180;919005;-69
2023/12/12 00:45:11;;;;;;;7.60;4.75;;;;;;;;;;771549;180;1124357;-63
2023/12/12 00:47:37;;;;;;;8.27;4.80;;;;;;;;;;770710;180;1020678;-68
2023/12/12 00:50:03;;;;;;;6.60;5.00;;;;;;;;;;776654;177;858156;-63
2023/12/12 00:52:29;;;;;;;6.73;4.50;;;;;;;;;;771872;179;915956;-70
2023/12/12 00:54:55;;;;;;;9.47;4.17;;;;;;;;;;772522;180;918623;-63
2023/12/12 00:57:21;;;;;;;6.95;4.32;;;;;;;;;;775557;179;819089;-68
2023/12/12 00:59:47;;;;;;;5.10;3.77;;;;;;;;;;772815;180;817636;-64
2023/12/12 01:02:13;;;;;;;7.03;4.10;;;;;;;;;;768539;179;929670;-63
2023/12/12 01:04:38;;;;;;;8.57;5.10;;;;;;;;;;775850;180;816894;-69
2023/12/12 01:07:04;;;;;;;6.47;4.10;;;;;;;;;;776528;180;915856;-62
2023/12/12 01:09:30;;;;;;;11.23;5.50;;;;;;;;;;776551;179;816370;-69
2023/12/12 01:11:56;;;;;;;9.07;5.80;;;;;;;;;;771748;180;918637;-62
2023/12/12 01:14:22;;;;;;;9.87;4.50;;;;;;;;;;778326;178;916491;-69
2023/12/12 01:16:48;;;;;;;6.73;3.97;;;;;;;;;;774394;177;921433;-70
2023/12/12 01:19:13;;;;;;;8.65;4.22;;;;;;;;;;758020;183;925426;-63
2023/12/12 01:21:39;;;;;;;11.10;4.50;;;;;;;;;;773767;181;920767;-63
2023/12/12 01:24:05;;;;;;;9.50;4.80;;;;;;;;;;773466;180;918517;-63
2023/12/12 01:26:31;;;;;;;7.97;3.97;;;;;;;;;;773008;180;820217;-68
2023/12/12 01:28:57;;;;;;;7.67;4.30;;;;;;;;;;771022;180;919250;-70
2023/12/12 01:31:23;;;;;;;5.60;3.33;;;;;;;;;;778241;178;919447;-69
2023/12/12 01:33:49;;;;;;;6.37;3.60;;;;;;;;;;772940;178;929657;-63
2023/12/12 01:36:15;;;;;;;7.70;3.60;;;;;;;;;;760901;183;920623;-63
2023/12/12 01:38:41;;;;;;;10.30;3.93;;;;;;;;;;773558;181;919433;-68
2023/12/12 01:41:07;;;;;;;10.00;4.40;;;;;;;;;;775338;179;814949;-68
2023/12/12 01:43:33;;;;;;;4.78;2.85;;;;;;;;;;759132;184;919550;-69
2023/12/12 01:45:59;;;;;;;6.67;2.90;;;;;;;;;;772839;177;905621;-62
2023/12/12 01:48:24;;;;;;;6.90;3.30;;;;;;;;;;774705;180;816505;-68
2023/12/12 01:50:50;;;;;;;7.17;3.30;;;;;;;;;;770125;180;915602;-62
2023/12/12 01:53:16;;;;;;;4.60;3.40;;;;;;;;;;772022;180;919223;-68
2023/12/12 01:55:42;;;;;;;8.10;3.33;;;;;;;;;;772252;180;824272;-69
2023/12/12 01:58:08;;;;;;;5.80;2.73;;;;;;;;;;769869;180;921628;-69
2023/12/12 02:00:34;;;;;;;5.03;3.00;;;;;;;;;;772641;180;922501;-69
2023/12/12 02:02:59;;;;;;;11.30;5.67;;;;;;;;;;773200;181;1738084;-68
2023/12/12 02:05:25;;;;;;;9.90;3.80;;;;;;;;;;771613;180;920777;-68
2023/12/12 02:07:51;;;;;;;6.62;3.20;;;;;;;;;;770195;179;922440;-63
2023/12/12 02:10:17;;;;;;;9.17;2.93;;;;;;;;;;779590;179;917864;-61
2023/12/12 02:12:43;;;;;;;5.87;2.87;;;;;;;;;;774490;180;919137;-63
2023/12/12 02:15:09;;;;;;;7.20;2.90;;;;;;;;;;773435;180;926062;-61
2023/12/12 02:17:34;;;;;;;4.13;2.47;;;;;;;;;;778763;178;918809;-69
2023/12/12 02:20:00;;;;;;;4.87;2.43;;;;;;;;;;772483;180;912548;-68
2023/12/12 02:22:26;;;;;;;5.93;3.03;;;;;;;;;;771500;180;916390;-61
2023/12/12 02:24:52;;;;;;;6.40;3.57;;;;;;;;;;773408;179;920287;-61
2023/12/12 02:27:18;;;;;;;3.37;2.47;;;;;;;;;;778098;180;918701;-61
2023/12/12 02:29:44;;;;;;;6.63;2.93;;;;;;;;;;770097;180;920683;-68
2023/12/12 02:32:10;;;;;;;11.40;2.53;;;;;;;;;;771310;180;920492;-68
2023/12/12 02:34:35;;;;;;;8.83;3.03;;;;;;;;;;779336;180;920612;-62
2023/12/12 02:37:01;;;;;;;6.07;3.13;;;;;;;;;;774832;179;918611;-61
2023/12/12 02:39:27;;;;;;;5.47;3.50;;;;;;;;;;774656;180;919269;-69
2023/12/12 02:41:53;;;;;;;5.37;3.07;;;;;;;;;;764395;180;921646;-68
2023/12/12 02:44:19;;;;;;;4.73;2.60;;;;;;;;;;765690;180;922331;-61
2023/12/12 02:46:45;;;;;;;5.60;2.53;;;;;;;;;;772041;180;920977;-61
2023/12/12 02:49:11;;;;;;;7.00;3.20;;;;;;;;;;770532;180;918762;-68
2023/12/12 02:51:36;;;;;;;5.93;2.43;;;;;;;;;;771212;180;919066;-61
2023/12/12 02:54:02;;;;;;;4.37;3.10;;;;;;;;;;771152;180;816022;-61
2023/12/12 02:56:30;;;;;;;8.30;3.10;;;;;;;;;;773765;177;820217;-68
2023/12/12 02:58:56;;;;;;;13.60;3.33;;;;;;;;;;776906;180;808749;-61
2023/12/12 03:01:22;;;;;;;7.30;2.35;;;;;;;;;;771339;180;890149;-61
2023/12/12 03:03:47;;;;;;;7.40;2.60;;;;;;;;;;770559;180;816697;-67
2023/12/12 03:06:13;;;;;;;6.70;3.00;;;;;;;;;;775426;180;919074;-61
2023/12/12 03:08:39;;;;;;;8.10;3.40;;;;;;;;;;771380;177;918971;-61
2023/12/12 03:11:05;;;;;;;7.67;2.97;;;;;;;;;;774115;179;918186;-68
2023/12/12 03:13:31;;;;;;;9.53;2.70;;;;;;;;;;758253;184;925823;-68
2023/12/12 03:15:57;;;;;;;4.80;2.90;;;;;;;;;;757776;183;918591;-61
2023/12/12 03:18:22;;;;;;;4.78;2.50;;;;;;;;;;772260;179;919048;-61
2023/12/12 03:20:48;;;;;;;5.73;2.60;;;;;;;;;;773086;178;919483;-61
2023/12/12 03:23:14;;;;;;;5.67;2.67;;;;;;;;;;780298;180;822159;-69
2023/12/12 03:25:40;;;;;;;8.40;3.07;;;;;;;;;;773386;177;927466;-61
2023/12/12 03:28:06;;;;;;;5.93;2.83;;;;;;;;;;775208;177;916532;-69
2023/12/12 03:30:32;;;;;;;6.33;2.30;;;;;;;;;;777906;180;816570;-68
2023/12/12 03:32:58;;;;;;;5.87;2.33;;;;;;;;;;772552;180;918737;-62
2023/12/12 03:35:23;;;;;;;8.27;2.90;;;;;;;;;;772026;179;919883;-68
2023/12/12 03:37:50;;;;;;;9.45;2.65;;;;;;;;;;775797;180;916971;-61
2023/12/12 03:40:15;;;;;;;9.70;2.20;;;;;;;;;;768896;178;917230;-68
2023/12/12 03:42:41;;;;;;;4.30;2.23;;;;;;;;;;768653;180;915614;-68
2023/12/12 03:45:08;;;;;;;8.23;2.60;;;;;;;;;;761748;183;1020323;-61
2023/12/12 03:47:34;;;;;;;6.07;2.27;;;;;;;;;;773108;181;816890;-61
2023/12/12 03:49:59;;;;;;;4.97;2.10;;;;;;;;;;772360;180;911621;-68
2023/12/12 03:52:25;;;;;;;6.10;2.87;;;;;;;;;;771064;180;925962;-61
2023/12/12 03:54:51;;;;;;;8.13;2.40;;;;;;;;;;777411;178;915306;-61
2023/12/12 03:57:17;;;;;;;5.60;2.90;;;;;;;;;;770568;179;916219;-68
2023/12/12 03:59:43;;;;;;;5.70;2.17;;;;;;;;;;772299;180;919256;-61
2023/12/12 04:02:08;;;;;;;9.30;2.20;;;;;;;;;;775607;180;913318;-70
2023/12/12 04:04:34;;;;;;;4.00;2.10;;;;;;;;;;769462;180;916779;-61
2023/12/12 04:07:00;;;;;;;8.17;2.63;;;;;;;;;;759021;181;913771;-67
2023/12/12 04:09:26;;;;;;;3.72;2.03;;;;;;;;;;771035;180;919162;-62
2023/12/12 04:11:52;;;;;;;6.10;2.87;;;;;;;;;;777358;181;815456;-67
2023/12/12 04:14:18;;;;;;;10.93;3.10;;;;;;;;;;772245;180;919741;-61
2023/12/12 04:16:44;;;;;;;3.70;2.33;;;;;;;;;;773079;180;918851;-61
2023/12/12 04:19:09;;;;;;;8.80;2.93;;;;;;;;;;779516;177;716407;-68
2023/12/12 04:21:35;;;;;;;3.80;2.10;;;;;;;;;;776249;180;618694;-68
2023/12/12 04:24:01;;;;;;;8.47;2.20;;;;;;;;;;774561;178;918303;-67
2023/12/12 04:26:28;;;;;;;4.03;2.10;;;;;;;;;;779559;180;816868;-61
2023/12/12 04:28:53;;;;;;;3.93;2.13;;;;;;;;;;777093;178;633106;-61
2023/12/12 04:31:20;;;;;;;4.95;1.83;;;;;;;;;;762049;182;876482;-68
2023/12/12 04:33:45;;;;;;;5.63;2.30;;;;;;;;;;772519;180;858244;-69
2023/12/12 04:36:14;;;;;;;11.03;2.57;;;;;;;;;;781340;180;815911;-68
2023/12/12 04:38:38;;;;;;;6.93;2.47;;;;;;;;;;771352;177;920676;-61
2023/12/12 04:41:03;;;;;;;10.77;4.00;;;;;;;;;;773565;180;822916;-68
2023/12/12 04:43:29;;;;;;;6.60;2.67;;;;;;;;;;778835;180;631472;-61
2023/12/12 04:45:55;;;;;;;6.43;2.57;;;;;;;;;;776594;178;627993;-68
2023/12/12 04:48:21;;;;;;;7.10;2.50;;;;;;;;;;776566;178;612368;-69
2023/12/12 04:50:47;;;;;;;6.27;2.33;;;;;;;;;;780238;178;635672;-61
2023/12/12 04:53:13;;;;;;;7.33;2.47;;;;;;;;;;777557;179;628358;-62
2023/12/12 04:55:39;;;;;;;11.30;3.30;;;;;;;;;;776496;180;628380;-61
2023/12/12 04:58:04;;;;;;;6.20;2.93;;;;;;;;;;776437;180;631156;-67
2023/12/12 05:00:30;;;;;;;7.17;3.67;;;;;;;;;;768406;180;828510;-62
2023/12/12 05:02:56;;;;;;;5.53;2.80;;;;;;;;;;771126;180;818636;-61
2023/12/12 05:05:22;;;;;;;4.13;2.40;;;;;;;;;;771049;180;908521;-67
2023/12/12 05:07:48;;;;;;;5.00;3.30;;;;;;;;;;777115;178;816916;-61
2023/12/12 05:10:14;;;;;;;6.07;2.37;;;;;;;;;;774223;180;816864;-68
2023/12/12 05:12:39;;;;;;;9.80;3.40;;;;;;;;;;775013;180;818514;-61
2023/12/12 05:15:06;;;;;;;9.63;4.30;;;;;;;;;;779476;180;623495;-61
2023/12/12 05:17:31;;;;;;;3.90;2.77;;;;;;;;;;772780;179;816473;-59
2023/12/12 05:19:59;;;;;;;8.13;2.97;;;;;;;;;;769127;180;918060;-61
2023/12/12 05:22:24;;;;;;;7.33;3.67;;;;;;;;;;776853;180;868658;-61
2023/12/12 05:24:50;;;;;;;7.13;3.10;;;;;;;;;;770430;180;923404;-68
2023/12/12 05:27:16;;;;;;;6.78;2.92;;;;;;;;;;769851;180;918933;-61
2023/12/12 05:29:42;;;;;;;10.63;3.40;;;;;;;;;;768861;180;918104;-68
2023/12/12 05:32:07;;;;;;;6.43;2.80;;;;;;;;;;776606;180;911434;-67
2023/12/12 05:34:33;;;;;;;8.97;3.63;;;;;;;;;;772446;178;912009;-68
2023/12/12 05:36:59;;;;;;;8.97;3.40;;;;;;;;;;770116;178;912597;-68
2023/12/12 05:39:25;;;;;;;10.60;3.55;;;;;;;;;;775369;180;918313;-61
2023/12/12 05:41:51;;;;;;;5.60;3.00;;;;;;;;;;769606;179;913792;-60
2023/12/12 05:44:17;;;;;;;8.23;3.80;;;;;;;;;;774269;177;918929;-61
2023/12/12 05:46:42;;;;;;;6.37;3.40;;;;;;;;;;778244;179;918651;-61
2023/12/12 05:49:09;;;;;;;8.17;3.50;;;;;;;;;;772175;180;917357;-67
2023/12/12 05:51:36;;;;;;;9.30;3.70;;;;;;;;;;773109;180;818385;-68
2023/12/12 05:54:00;;;;;;;7.57;3.80;;;;;;;;;;770963;180;918397;-67
2023/12/12 05:56:26;;;;;;;7.70;3.30;;;;;;;;;;775454;179;815309;-68
2023/12/12 05:58:52;;;;;;;7.20;3.63;;;;;;;;;;773294;179;916280;-60
2023/12/12 06:01:18;;;;;;;7.30;4.30;;;;;;;;;;771708;179;819111;-67
2023/12/12 06:03:44;;;;;;;8.30;3.37;;;;;;;;;;776060;180;917384;-68
2023/12/12 06:06:10;;;;;;;7.50;3.37;;;;;;;;;;768674;179;916593;-61
2023/12/12 06:08:35;;;;;;;4.33;3.00;;;;;;;;;;760637;179;913579;-67
2023/12/12 06:11:01;;;;;;;9.33;3.50;;;;;;;;;;776000;180;920324;-67
2023/12/12 06:13:27;;;;;;;5.27;2.90;;;;;;;;;;770446;180;919246;-67
2023/12/12 06:15:53;;;;;;;5.57;2.90;;;;;;;;;;774523;177;716112;-67
2023/12/12 06:18:19;;;;;;;11.00;2.70;;;;;;;;;;777315;180;869019;-68
2023/12/12 06:20:45;;;;;;;5.67;3.20;;;;;;;;;;771373;180;918852;-60
2023/12/12 06:23:12;;;;;;;6.10;3.00;;;;;;;;;;771621;178;817654;-66
2023/12/12 06:25:36;;;;;;;4.90;2.13;;;;;;;;;;773011;179;826740;-68
2023/12/12 06:28:03;;;;;;;6.63;2.27;;;;;;;;;;777171;178;918384;-67
2023/12/12 06:30:28;;;;;;;4.80;2.53;;;;;;;;;;773518;180;896577;-60
2023/12/12 06:32:55;;;;;;;14.80;3.27;;;;;;;;;;774279;180;811836;-60
2023/12/12 06:35:20;;;;;;;6.43;2.90;;;;;;;;;;778156;180;929277;-61
2023/12/12 06:37:46;;;;;;;3.50;2.20;;;;;;;;;;772848;180;919462;-67
2023/12/12 06:40:12;;;;;;;5.00;2.20;;;;;;;;;;770820;179;918827;-67
2023/12/12 06:42:38;;;;;;;6.20;2.03;;;;;;;;;;776075;178;879335;-67
2023/12/12 06:45:04;;;;;;;5.67;2.10;;;;;;;;;;772669;180;919285;-60
2023/12/12 06:47:30;;;;;;;5.07;2.65;;;;;;;;;;770080;180;931025;-68
2023/12/12 06:49:56;;;;;;;10.20;2.50;;;;;;;;;;772762;177;909265;-61
2023/12/12 06:52:22;;;;;;;5.43;2.63;;;;;;;;;;778497;180;914126;-68
2023/12/12 06:54:48;;;;;;;4.10;2.67;;;;;;;;;;775937;179;921748;-60
2023/12/12 06:57:14;;;;;;;7.80;2.63;;;;;;;;;;763939;183;920198;-60
2023/12/12 06:59:40;;;;;;;5.12;3.05;;;;;;;;;;774517;178;918876;-60
2023/12/12 07:02:08;;;;;;;13.00;2.90;;;;;;;;;;774036;177;916309;-68
2023/12/12 07:04:32;;;;;;;4.33;2.53;;;;;;;;;;774651;180;812315;-60
2023/12/12 07:06:57;;;;;;;8.40;3.13;;;;;;;;;;776710;178;915464;-69
2023/12/12 07:09:23;;;;;;;6.47;2.00;;;;;;;;;;773542;180;919701;-60
2023/12/12 07:11:49;;;;;;;3.77;2.20;;;;;;;;;;771448;180;919448;-60
2023/12/12 07:14:15;;;;;;;7.40;1.87;;;;;;;;;;772398;180;919132;-67
2023/12/12 07:16:41;;;;;;;6.97;2.87;;;;;;;;;;770754;181;915731;-68
2023/12/12 07:19:08;;;;;;;5.90;3.40;;;;;;;;;;771390;180;1018429;-60
2023/12/12 07:21:39;;;;;;;7.00;3.20;;;;;;;;;;772616;180;819652;-67
2023/12/12 07:24:05;;;;;;;3.73;3.13;;;;;;;;;;778040;180;918541;-60
2023/12/12 07:26:31;;;;;;;5.50;3.27;;;;;;;;;;773079;177;909462;-67
2023/12/12 07:28:57;;;;;;;6.03;2.80;;;;;;;;;;772301;180;923224;-67
2023/12/12 07:31:22;;;;;;;5.87;3.20;;;;;;;;;;772587;180;1017725;-66
2023/12/12 07:33:48;;;;;;;8.13;3.10;;;;;;;;;;779092;180;920585;-60
2023/12/12 07:36:14;;;;;;;6.93;2.83;;;;;;;;;;771021;180;920243;-60
2023/12/12 07:38:40;;;;;;;4.70;2.63;;;;;;;;;;771932;180;1028569;-60
2023/12/12 07:41:06;;;;;;;6.67;2.70;;;;;;;;;;775904;180;816485;-68
2023/12/12 07:43:32;;;;;;;6.70;3.03;;;;;;;;;;771179;179;915133;-60
2023/12/12 07:45:57;;;;;;;6.22;2.55;;;;;;;;;;772748;180;919142;-63
2023/12/12 07:48:23;;;;;;;6.63;2.33;;;;;;;;;;776751;180;815667;-60
2023/12/12 07:50:49;;;;;;;5.23;2.53;;;;;;;;;;774290;180;917501;-60
2023/12/12 07:53:15;;;;;;;7.93;2.63;;;;;;;;;;771980;180;919349;-60
2023/12/12 07:55:41;;;;;;;7.37;3.23;;;;;;;;;;777290;180;931032;-60
2023/12/12 07:58:07;;;;;;;4.53;2.70;;;;;;;;;;772550;178;956792;-68
2023/12/12 08:00:32;;;;;;;9.43;3.20;;;;;;;;;;763990;177;919395;-68
2023/12/12 08:02:58;;;;;;;9.10;3.13;;;;;;;;;;761642;181;856228;-67
2023/12/12 08:05:24;;;;;;;5.40;2.40;;;;;;;;;;779285;177;917552;-60
2023/12/12 08:07:50;;;;;;;5.50;2.23;;;;;;;;;;775584;180;913729;-68
2023/12/12 08:10:16;;;;;;;6.20;2.50;;;;;;;;;;773427;178;1020296;-60
2023/12/12 08:12:42;;;;;;;7.43;2.67;;;;;;;;;;778075;180;917595;-60
2023/12/12 08:15:08;;;;;;;7.33;3.10;;;;;;;;;;774185;180;918990;-60
2023/12/12 08:17:33;;;;;;;5.40;2.50;;;;;;;;;;772806;179;953505;-60
2023/12/12 08:19:59;;;;;;;4.00;2.10;;;;;;;;;;775939;180;918110;-60
2023/12/12 08:22:25;;;;;;;6.67;2.87;;;;;;;;;;773416;179;919663;-60
2023/12/12 08:24:53;;;;;;;9.53;3.03;;;;;;;;;;772355;180;923748;-60
2023/12/12 08:27:18;;;;;;;6.17;2.63;;;;;;;;;;772953;180;926912;-66
2023/12/12 08:29:43;;;;;;;4.77;2.77;;;;;;;;;;770106;180;1023576;-67
2023/12/12 08:32:09;;;;;;;3.93;2.33;;;;;;;;;;771994;180;920911;-60
2023/12/12 08:34:35;;;;;;;11.37;6.83;;;;;;;;;;774147;178;919286;-68
2023/12/12 08:37:01;;;;;;;11.20;5.43;;;;;;;;;;778289;180;907197;-67
2023/12/12 08:39:27;;;;;;;10.03;5.80;;;;;;;;;;774585;179;816386;-60
2023/12/12 08:41:53;;;;;;;14.83;5.70;;;;;;;;;;771298;180;918932;-68
2023/12/12 08:44:18;;;;;;;13.67;7.53;;;;;;;;;;779120;178;813168;-61
2023/12/12 08:46:44;;;;;;;14.57;7.13;;;;;;;;;;773338;178;915465;-60
2023/12/12 08:49:10;;;;;;;16.43;4.97;;;;;;;;;;773341;180;920864;-67
2023/12/12 08:51:36;;;;;;;9.47;5.50;;;;;;;;;;775495;180;919369;-61
2023/12/12 08:54:02;;;;;;;6.67;4.30;;;;;;;;;;770719;180;943452;-61
2023/12/12 08:56:28;;;;;;;13.60;4.60;;;;;;;;;;771795;180;918056;-68
2023/12/12 08:58:54;;;;;;;7.30;3.60;;;;;;;;;;765453;180;917382;-60
2023/12/12 09:01:19;;;;;;;6.12;3.30;;;;;;;;;;766057;181;807754;-60
2023/12/12 09:03:45;;;;;;;7.43;3.30;;;;;;;;;;771008;180;819760;-60
2023/12/12 09:06:11;;;;;;;11.18;2.75;;;;;;;;;;772088;180;916005;-67
2023/12/12 09:08:37;;;;;;;12.57;4.37;;;;;;;;;;774368;180;916715;-68
2023/12/12 09:11:03;;;;;;;4.80;2.63;;;;;;;;;;772815;179;816105;-68
2023/12/12 09:13:29;;;;;;;6.20;2.90;;;;;;;;;;771443;180;908967;-67
2023/12/12 09:15:55;;;;;;;6.83;2.63;;;;;;;;;;776633;180;916131;-60
2023/12/12 09:18:20;;;;;;;7.33;3.07;;;;;;;;;;773284;179;926059;-60
2023/12/12 09:20:47;;;;;;;8.90;3.00;;;;;;;;;;773589;180;919367;-60
2023/12/12 09:23:12;;;;;;;7.93;2.60;;;;;;;;;;771678;180;917365;-60
2023/12/12 09:25:38;;;;;;;6.30;2.70;;;;;;;;;;770819;180;917505;-60
2023/12/12 09:28:04;;;;;;;10.03;2.90;;;;;;;;;;770680;180;919302;-67
2023/12/12 09:30:30;;;;;;;4.17;2.37;;;;;;;;;;772516;177;903403;-66
2023/12/12 09:32:55;;;;;;;8.73;2.87;;;;;;;;;;778653;178;900894;-68
2023/12/12 09:35:21;;;;;;;6.50;2.77;;;;;;;;;;773079;180;919480;-60
2023/12/12 09:37:47;;;;;;;5.87;3.13;;;;;;;;;;771854;180;919281;-60
2023/12/12 09:40:13;;;;;;;5.37;2.20;;;;;;;;;;778381;180;811929;-68
2023/12/12 09:42:39;;;;;;;10.53;3.27;;;;;;;;;;772052;180;848641;-59
2023/12/12 09:45:05;;;;;;;8.80;2.42;;;;;;;;;;771764;178;920126;-69
2023/12/12 09:47:31;;;;;;;6.33;2.93;;;;;;;;;;774659;180;917857;-68
2023/12/12 09:49:58;;;;;;;4.13;2.20;;;;;;;;;;769901;177;883629;-68
2023/12/12 09:52:23;;;;;;;6.23;2.40;;;;;;;;;;765756;181;919375;-60
2023/12/12 09:54:49;;;;;;;5.93;2.53;;;;;;;;;;769312;180;918750;-67
2023/12/12 09:57:16;;;;;;;8.17;3.00;;;;;;;;;;775100;180;919018;-60
2023/12/12 09:59:42;;;;;;;7.83;2.67;;;;;;;;;;771098;178;920818;-67
2023/12/12 10:02:07;;;;;;;5.93;2.57;;;;;;;;;;773554;180;818754;-60
2023/12/12 10:04:33;;;;;;;10.47;3.40;;;;;;;;;;775818;180;626545;-60
2023/12/12 10:06:59;;;;;;;7.63;2.90;;;;;;;;;;763896;181;838903;-70
2023/12/12 10:09:25;;;;;;;6.10;2.77;;;;;;;;;;772452;180;714002;-69
2023/12/12 10:11:51;;;;;;;8.30;3.50;;;;;;;;;;775365;180;928232;-60
2023/12/12 10:14:17;;;;;;;5.27;2.63;;;;;;;;;;770853;180;914603;-60
2023/12/12 10:16:42;;;;;;;9.30;2.73;;;;;;;;;;770946;178;911363;-61
2023/12/12 10:19:08;;;;;;;4.90;2.83;;;;;;;;;;771971;179;926823;-69
2023/12/12 10:21:34;;;;;;;5.40;2.23;;;;;;;;;;770778;181;916872;-69
2023/12/12 10:24:01;;;;;;;5.30;2.13;;;;;;;;;;770851;180;919410;-68
2023/12/12 10:26:29;;;;;;;9.33;3.10;;;;;;;;;;772896;180;922202;-68
2023/12/12 10:28:54;;;;;;;6.77;2.73;;;;;;;;;;778173;179;816091;-61
2023/12/12 10:31:20;;;;;;;5.85;2.47;;;;;;;;;;774935;180;923410;-69
2023/12/12 10:33:46;;;;;;;6.47;3.50;;;;;;;;;;773593;179;919651;-60
2023/12/12 10:36:12;;;;;;;8.70;2.67;;;;;;;;;;777766;178;817138;-61
2023/12/12 10:38:38;;;;;;;5.97;2.27;;;;;;;;;;773628;180;907127;-70
2023/12/12 10:41:09;;;;;;;5.77;2.37;;;;;;;;;;772349;180;919205;-60
2023/12/12 10:43:35;;;;;;;8.25;3.12;;;;;;;;;;774085;180;1022649;-68
2023/12/12 10:46:01;;;;;;;11.10;3.20;;;;;;;;;;776765;178;920270;-61
2023/12/12 10:48:27;;;;;;;5.23;3.20;;;;;;;;;;771823;180;919189;-69
2023/12/12 10:50:53;;;;;;;7.00;2.83;;;;;;;;;;771284;180;920470;-61
2023/12/12 10:53:19;;;;;;;7.87;2.60;;;;;;;;;;777326;180;817366;-61
2023/12/12 10:55:44;;;;;;;6.00;2.57;;;;;;;;;;771047;178;819378;-60
2023/12/12 10:58:10;;;;;;;6.03;2.43;;;;;;;;;;771249;180;919437;-61
2023/12/12 11:00:36;;;;;;;6.90;2.63;;;;;;;;;;771842;180;919662;-61
2023/12/12 11:03:02;;;;;;;5.93;2.50;;;;;;;;;;779733;180;918393;-69
2023/12/12 11:05:27;;;;;;;6.83;2.20;;;;;;;;;;772779;180;914351;-69
2023/12/12 11:07:53;;;;;;;5.03;2.50;;;;;;;;;;771778;177;919559;-69
2023/12/12 11:10:21;;;;;;;9.90;3.17;;;;;;;;;;775899;180;818725;-61
2023/12/12 11:12:45;;;;;;;6.60;2.80;;;;;;;;;;771096;179;720039;-61
2023/12/12 11:15:12;;;;;;;9.57;3.23;;;;;;;;;;759591;181;816498;-69
2023/12/12 11:17:37;;;;;;;8.27;2.83;;;;;;;;;;776831;180;815096;-69
2023/12/12 11:20:17;;;;;;;10.80;3.43;;;;;;;;;;769991;180;817535;-69
2023/12/12 11:22:43;;;;;;;11.43;3.50;;;;;;;;;;770765;180;1016086;-61
2023/12/12 11:25:10;;;;;;;6.70;2.60;;;;;;;;;;771088;181;918041;-61
2023/12/12 11:27:35;;;;;;;9.10;3.20;;;;;;;;;;774602;180;918384;-61
2023/12/12 11:30:01;;;;;;;9.60;2.33;;;;;;;;;;771715;180;927669;-61
2023/12/12 11:32:27;;;;;;;9.73;2.47;;;;;;;;;;769901;180;918020;-69
2023/12/12 11:34:52;;;;;;;6.17;2.57;;;;;;;;;;772107;180;917309;-69
2023/12/12 11:37:18;;;;;;;11.52;2.97;;;;;;;;;;772840;180;828262;-61
2023/12/12 11:39:49;;;;;;;6.67;1.90;;;;;;;;;;774411;175;818349;-61
2023/12/12 11:42:19;;;;;;;8.50;2.37;;;;;;;;;;774871;176;909194;-61
2023/12/12 11:44:47;;;;;;;5.63;2.40;;;;;;;;;;775544;179;1022170;-61
2023/12/12 11:47:14;;;;;;;6.80;2.57;;;;;;;;;;779388;180;814211;-69
2023/12/12 11:49:40;;;;;;;6.37;2.37;;;;;;;;;;770087;180;920617;-69
2023/12/12 11:52:07;;;;;;;6.70;3.20;;;;;;;;;;763044;181;1025170;-61
2023/12/12 11:54:31;;;;;;;6.97;3.13;;;;;;;;;;776546;177;919093;-61
2023/12/12 11:56:57;;;;;;;5.90;3.00;;;;;;;;;;772527;179;905611;-69
2023/12/12 11:59:24;;;;;;;10.32;2.75;;;;;;;;;;773355;180;918106;-61
2023/12/12 12:01:50;;;;;;;9.63;2.93;;;;;;;;;;780587;180;717497;-70
2023/12/12 12:04:16;;;;;;;7.77;3.10;;;;;;;;;;771773;180;915743;-61
2023/12/12 12:06:43;;;;;;;8.77;3.10;;;;;;;;;;773334;180;807188;-61
2023/12/12 12:09:08;;;;;;;14.73;4.50;;;;;;;;;;772433;180;937039;-61
2023/12/12 12:11:35;;;;;;;13.03;3.40;;;;;;;;;;768988;180;917051;-61
2023/12/12 12:14:01;;;;;;;11.70;2.67;;;;;;;;;;770357;180;917858;-61
2023/12/12 12:16:27;;;;;;;6.97;3.10;;;;;;;;;;771077;178;1021755;-69
2023/12/12 12:18:54;;;;;;;8.17;3.27;;;;;;;;;;777382;178;917464;-61
2023/12/12 12:21:19;;;;;;;8.47;3.50;;;;;;;;;;772945;180;910372;-69
2023/12/12 12:23:45;;;;;;;6.50;2.93;;;;;;;;;;770771;180;905735;-61
2023/12/12 12:26:10;;;;;;;13.03;3.50;;;;;;;;;;777794;179;875495;-60
2023/12/12 12:28:36;;;;;;;8.87;3.40;;;;;;;;;;762902;179;848494;-69
2023/12/12 12:31:04;;;;;;;11.63;3.37;;;;;;;;;;763827;180;920574;-64
2023/12/12 12:33:32;;;;;;;8.75;3.72;;;;;;;;;;777154;180;972713;-61
2023/12/12 12:35:58;;;;;;;12.43;3.53;;;;;;;;;;766804;180;913975;-70
2023/12/12 12:38:27;;;;;;;11.23;3.20;;;;;;;;;;772239;180;867217;-61
2023/12/12 12:40:53;;;;;;;8.20;3.13;;;;;;;;;;774708;181;796870;-69
2023/12/12 12:43:19;;;;;;;5.53;3.00;;;;;;;;;;775674;180;916641;-70
2023/12/12 12:45:45;;;;;;;5.53;2.53;;;;;;;;;;773920;180;818275;-61
2023/12/12 12:48:10;;;;;;;9.30;2.70;;;;;;;;;;774708;179;920179;-69
2023/12/12 12:50:36;;;;;;;5.23;2.97;;;;;;;;;;768806;180;920752;-61
2023/12/12 12:53:03;;;;;;;7.37;3.40;;;;;;;;;;772799;180;857676;-66
2023/12/12 12:55:28;;;;;;;7.50;3.13;;;;;;;;;;772902;180;906595;-61
2023/12/12 12:57:54;;;;;;;7.07;3.80;;;;;;;;;;774334;180;914830;-69
2023/12/12 13:00:20;;;;;;;7.80;3.17;;;;;;;;;;778121;177;915439;-61
2023/12/12 13:02:46;;;;;;;8.53;3.33;;;;;;;;;;773597;179;917249;-61
2023/12/12 13:05:11;;;;;;;7.90;4.20;;;;;;;;;;772747;180;874334;-61
2023/12/12 13:07:37;;;;;;;11.67;3.73;;;;;;;;;;778706;178;918707;-68
2023/12/12 13:10:06;;;;;;;7.83;3.77;;;;;;;;;;773920;179;921503;-68
2023/12/12 13:12:29;;;;;;;5.70;3.13;;;;;;;;;;775372;179;816749;-61
2023/12/12 13:14:55;;;;;;;11.53;3.73;;;;;;;;;;772867;179;820168;-61
2023/12/12 13:17:21;;;;;;;5.93;3.33;;;;;;;;;;760165;181;914954;-68
2023/12/12 13:19:47;;;;;;;9.53;3.17;;;;;;;;;;773614;180;884154;-60
2023/12/12 13:22:13;;;;;;;8.30;3.70;;;;;;;;;;771766;179;914117;-69
2023/12/12 13:24:39;;;;;;;14.37;3.27;;;;;;;;;;777159;180;913633;-68
2023/12/12 13:27:05;;;;;;;7.80;2.80;;;;;;;;;;770752;178;913998;-61
2023/12/12 13:29:31;;;;;;;9.33;3.77;;;;;;;;;;772992;178;886522;-69
2023/12/12 13:31:57;;;;;;;6.13;2.63;;;;;;;;;;776424;180;919269;-62
2023/12/12 13:34:22;;;;;;;7.03;3.20;;;;;;;;;;770610;180;911093;-69
2023/12/12 13:36:48;;;;;;;9.53;3.77;;;;;;;;;;771375;180;920407;-69
2023/12/12 13:39:14;;;;;;;7.27;2.53;;;;;;;;;;777300;180;909969;-61
2023/12/12 13:41:40;;;;;;;12.40;3.67;;;;;;;;;;772407;180;942505;-69
2023/12/12 13:44:06;;;;;;;13.87;3.40;;;;;;;;;;772483;178;815662;-61
2023/12/12 13:46:32;;;;;;;11.50;3.70;;;;;;;;;;771920;180;922563;-68
2023/12/12 13:48:57;;;;;;;9.50;3.67;;;;;;;;;;782076;180;815261;-61
2023/12/12 13:51:24;;;;;;;10.53;3.43;;;;;;;;;;771228;180;917908;-61
2023/12/12 13:53:50;;;;;;;9.73;3.25;;;;;;;;;;770988;180;1026798;-68
2023/12/12 13:56:15;;;;;;;9.70;2.97;;;;;;;;;;776739;177;914213;-60
2023/12/12 13:58:41;;;;;;;8.03;3.30;;;;;;;;;;769832;179;919187;-68
2023/12/12 14:01:07;;;;;;;12.37;3.43;;;;;;;;;;772052;180;942404;-70
2023/12/12 14:03:32;;;;;;;6.57;3.63;;;;;;;;;;780556;179;915289;-69
2023/12/12 14:05:58;;;;;;;6.17;3.53;;;;;;;;;;767244;178;910961;-61
2023/12/12 14:08:24;;;;;;;7.50;3.23;;;;;;;;;;777184;180;819852;-69
2023/12/12 14:10:50;;;;;;;10.50;3.77;;;;;;;;;;774217;177;883504;-61
2023/12/12 14:13:16;;;;;;;11.88;6.05;;;;;;;;;;761665;181;922462;-61
2023/12/12 14:15:42;;;;;;;12.87;6.20;;;;;;;;;;774144;177;915553;-61
2023/12/12 14:18:07;;;;;;;8.50;4.97;;;;;;;;;;774565;180;821731;-68